Kyoto, Japan

11:07 AM JST on August 29, 2015 (GMT +0900)
Kyoto | | Change Station
CLOSE
Current Station
Personal Weather Station
Location: Kyoto, KYOTO
Elevation: 115 ft
Nearby Weather Stations

Elev 115 ft 34.93 °N, 135.76 °E | Updated 7 minutes ago

Scattered Clouds
Scattered Clouds
87.6 °F
Feels Like 94 °F
N
0.0
Wind Variable Wind from West

Today
High -- | Low -- °F
--% Chance of Precip.
Yesterday
High -- | Low -- °F
Precip. -- in
5:26 AM 6:28 PM
Waxing Gibbous, 99% visible
Pressure 29.83 in
Visibility 6.2 miles
Clouds Few 2000 ft
Scattered Clouds 3000 ft
Heat Index 94 °F
Dew Point 72 °F
Humidity 59%
Rainfall Not available.
Snow Depth Not available.
UV 0.0 out of 12
Pollen Not available.
Air Quality Not available.
Flu Activity Not available.
METAR RJOO 290200Z 00000KT 9999 FEW020 SCT030 BKN/// 28/21 Q1010
Pressure 29.83 in
Visibility 6.2 miles
Clouds Few 2000 ft
Scattered Clouds 3000 ft
Heat Index 94 °F
Dew Point 72 °F
Humidity 59%
Rainfall Not available.
Snow Depth Not available.
UV 0.0 out of 12
Pollen Not available.
Air Quality Not available.
Flu Activity Not available.
METAR RJOO 290200Z 00000KT 9999 FEW020 SCT030 BKN/// 28/21 Q1010

10-Day Weather Forecast

×

Almanac

Astronomy

Aug. 29, 2015 Rise Set
Actual Time
Civil Twilight
Nautical Twilight
Astronomical Twilight
Moon
Length of Visible Light
Length of Day
Tomorrow will be .
, % of the Moon is Illuminated

Today's Extremes

Country Highs Country Lows

Community

WunderPhotos

Upload Photos

1,850,566 photos uploaded!

WunderBlogs® & News

Nearby

Air Quality

  Air Quality AQ Index Pollutant
Not available.

Snow Depth

Station Depth Elevation

Earthquake Activity

City Distance Mag. Time & Date
Minimum magnitude displayed is 2.5.

Coastal Water Temperatures

Place Temperature

Stations

Nearby Weather Stations

Station Location Temp. Windchill Dew Point Humidity Wind Precip. Elev Updated Type